sensor_id;sensor_type;location;lat;lon;timestamp;pressure;altitude;pressure_sealevel;temperature;humidity
77526;BME280;66627;29.424;-98.496;2023-07-13T00:02:10;98266.60;;;41.46;18.13
77526;BME280;66627;29.424;-98.496;2023-07-13T00:04:35;98257.55;;;41.27;17.33
77526;BME280;66627;29.424;-98.496;2023-07-13T00:07:00;98261.97;;;41.55;17.30
77526;BME280;66627;29.424;-98.496;2023-07-13T00:09:26;98265.41;;;41.86;16.97
77526;BME280;66627;29.424;-98.496;2023-07-13T00:11:53;98263.83;;;41.76;17.17
77526;BME280;66627;29.424;-98.496;2023-07-13T00:14:16;98259.55;;;41.24;17.57
77526;BME280;66627;29.424;-98.496;2023-07-13T00:16:41;98262.08;;;41.29;17.35
77526;BME280;66627;29.424;-98.496;2023-07-13T00:19:07;98263.90;;;40.56;17.34
77526;BME280;66627;29.424;-98.496;2023-07-13T00:21:31;98262.56;;;40.26;17.80
77526;BME280;66627;29.424;-98.496;2023-07-13T00:23:58;98265.92;;;40.64;18.21
77526;BME280;66627;29.424;-98.496;2023-07-13T00:26:22;98267.96;;;40.57;18.34
77526;BME280;66627;29.424;-98.496;2023-07-13T00:28:47;98267.90;;;39.63;18.84
77526;BME280;66627;29.424;-98.496;2023-07-13T00:31:13;98275.45;;;39.35;18.83
77526;BME280;66627;29.424;-98.496;2023-07-13T00:33:37;98278.59;;;39.77;18.62
77526;BME280;66627;29.424;-98.496;2023-07-13T00:36:03;98283.13;;;38.41;19.49
77526;BME280;66627;29.424;-98.496;2023-07-13T00:38:27;98279.68;;;38.85;19.56
77526;BME280;66627;29.424;-98.496;2023-07-13T00:40:53;98277.94;;;38.80;19.52
77526;BME280;66627;29.424;-98.496;2023-07-13T00:43:19;98274.11;;;39.85;19.27
77526;BME280;66627;29.424;-98.496;2023-07-13T00:48:08;98278.12;;;39.37;20.29
77526;BME280;66627;29.424;-98.496;2023-07-13T00:50:33;98288.30;;;39.00;20.81
77526;BME280;66627;29.424;-98.496;2023-07-13T00:52:58;98287.94;;;38.89;21.42
77526;BME280;66627;29.424;-98.496;2023-07-13T00:55:24;98291.75;;;38.68;22.11
77526;BME280;66627;29.424;-98.496;2023-07-13T00:57:49;98293.39;;;38.63;21.77
77526;BME280;66627;29.424;-98.496;2023-07-13T01:00:15;98288.87;;;38.79;21.39
77526;BME280;66627;29.424;-98.496;2023-07-13T01:02:47;98289.79;;;38.58;21.50
77526;BME280;66627;29.424;-98.496;2023-07-13T01:05:10;98288.73;;;38.24;21.37
77526;BME280;66627;29.424;-98.496;2023-07-13T01:07:29;98288.89;;;38.87;22.86
77526;BME280;66627;29.424;-98.496;2023-07-13T01:09:55;98290.51;;;37.30;27.18
77526;BME280;66627;29.424;-98.496;2023-07-13T01:12:20;98295.74;;;38.10;28.53
77526;BME280;66627;29.424;-98.496;2023-07-13T01:14:45;98303.40;;;37.07;30.04
77526;BME280;66627;29.424;-98.496;2023-07-13T01:17:11;98303.23;;;36.89;30.81
77526;BME280;66627;29.424;-98.496;2023-07-13T01:19:38;98306.67;;;37.13;30.88
77526;BME280;66627;29.424;-98.496;2023-07-13T01:22:01;98312.70;;;36.40;32.29
77526;BME280;66627;29.424;-98.496;2023-07-13T01:26:58;98312.99;;;36.22;33.19
77526;BME280;66627;29.424;-98.496;2023-07-13T01:29:24;98315.73;;;36.21;33.95
77526;BME280;66627;29.424;-98.496;2023-07-13T01:31:44;98318.96;;;36.05;34.30
77526;BME280;66627;29.424;-98.496;2023-07-13T01:34:08;98323.53;;;35.94;34.32
77526;BME280;66627;29.424;-98.496;2023-07-13T01:41:35;98331.36;;;35.80;35.49
77526;BME280;66627;29.424;-98.496;2023-07-13T01:43:48;98334.00;;;35.49;35.65
77526;BME280;66627;29.424;-98.496;2023-07-13T01:46:13;98340.69;;;35.90;35.51
77526;BME280;66627;29.424;-98.496;2023-07-13T01:48:38;98344.52;;;35.59;36.05
77526;BME280;66627;29.424;-98.496;2023-07-13T01:51:03;98343.39;;;35.37;36.25
77526;BME280;66627;29.424;-98.496;2023-07-13T01:53:29;98347.94;;;35.76;36.18
77526;BME280;66627;29.424;-98.496;2023-07-13T01:55:55;98352.32;;;35.77;36.07
77526;BME280;66627;29.424;-98.496;2023-07-13T01:58:20;98362.74;;;35.26;36.66
77526;BME280;66627;29.424;-98.496;2023-07-13T02:00:47;98364.27;;;35.68;36.54
77526;BME280;66627;29.424;-98.496;2023-07-13T02:03:11;98370.86;;;35.42;37.02
77526;BME280;66627;29.424;-98.496;2023-07-13T02:05:36;98382.64;;;34.56;38.19
77526;BME280;66627;29.424;-98.496;2023-07-13T02:08:01;98389.99;;;33.93;39.12
77526;BME280;66627;29.424;-98.496;2023-07-13T02:10:25;98395.55;;;34.58;38.37
77526;BME280;66627;29.424;-98.496;2023-07-13T02:12:51;98412.43;;;34.58;38.40
77526;BME280;66627;29.424;-98.496;2023-07-13T02:15:17;98413.71;;;34.05;39.99
77526;BME280;66627;29.424;-98.496;2023-07-13T02:17:42;98417.79;;;34.05;39.58
77526;BME280;66627;29.424;-98.496;2023-07-13T02:20:07;98419.96;;;33.74;40.24
77526;BME280;66627;29.424;-98.496;2023-07-13T02:22:32;98427.95;;;34.44;39.98
77526;BME280;66627;29.424;-98.496;2023-07-13T02:24:57;98427.42;;;33.80;40.46
77526;BME280;66627;29.424;-98.496;2023-07-13T02:27:22;98430.54;;;33.78;40.52
77526;BME280;66627;29.424;-98.496;2023-07-13T02:29:47;98439.42;;;33.59;40.95
77526;BME280;66627;29.424;-98.496;2023-07-13T02:32:14;98441.35;;;33.01;42.16
77526;BME280;66627;29.424;-98.496;2023-07-13T02:34:42;98454.50;;;33.10;42.24
77526;BME280;66627;29.424;-98.496;2023-07-13T02:37:04;98461.84;;;33.27;41.75
77526;BME280;66627;29.424;-98.496;2023-07-13T02:39:28;98475.77;;;32.74;42.59
77526;BME280;66627;29.424;-98.496;2023-07-13T02:41:53;98481.44;;;32.74;42.52
77526;BME280;66627;29.424;-98.496;2023-07-13T02:44:18;98483.02;;;32.69;43.18
77526;BME280;66627;29.424;-98.496;2023-07-13T02:46:44;98488.44;;;32.42;43.30
77526;BME280;66627;29.424;-98.496;2023-07-13T02:49:09;98488.96;;;32.63;43.18
77526;BME280;66627;29.424;-98.496;2023-07-13T02:51:34;98494.26;;;32.40;43.10
77526;BME280;66627;29.424;-98.496;2023-07-13T02:53:59;98499.18;;;32.48;43.50
77526;BME280;66627;29.424;-98.496;2023-07-13T02:56:26;98506.22;;;32.21;44.01
77526;BME280;66627;29.424;-98.496;2023-07-13T02:58:49;98508.67;;;31.72;44.82
77526;BME280;66627;29.424;-98.496;2023-07-13T03:01:15;98507.54;;;31.93;45.01
77526;BME280;66627;29.424;-98.496;2023-07-13T03:03:41;98514.40;;;32.81;43.56
77526;BME280;66627;29.424;-98.496;2023-07-13T03:06:06;98516.97;;;32.21;44.29
77526;BME280;66627;29.424;-98.496;2023-07-13T03:08:32;98521.97;;;32.44;43.85
77526;BME280;66627;29.424;-98.496;2023-07-13T03:11:02;98526.68;;;32.37;44.28
77526;BME280;66627;29.424;-98.496;2023-07-13T03:13:22;98540.97;;;32.00;44.66
77526;BME280;66627;29.424;-98.496;2023-07-13T03:15:50;98543.42;;;31.65;45.62
77526;BME280;66627;29.424;-98.496;2023-07-13T03:18:12;98554.04;;;31.56;45.86
77526;BME280;66627;29.424;-98.496;2023-07-13T03:20:37;98559.70;;;30.72;46.94
77526;BME280;66627;29.424;-98.496;2023-07-13T03:23:03;98567.31;;;31.16;47.09
77526;BME280;66627;29.424;-98.496;2023-07-13T03:25:28;98575.33;;;31.41;46.35
77526;BME280;66627;29.424;-98.496;2023-07-13T03:27:54;98583.07;;;31.48;46.58
77526;BME280;66627;29.424;-98.496;2023-07-13T03:30:27;98587.30;;;31.76;46.07
77526;BME280;66627;29.424;-98.496;2023-07-13T03:32:43;98593.99;;;31.40;46.71
77526;BME280;66627;29.424;-98.496;2023-07-13T03:35:10;98598.83;;;31.17;47.32
77526;BME280;66627;29.424;-98.496;2023-07-13T03:37:35;98595.11;;;30.94;47.64
77526;BME280;66627;29.424;-98.496;2023-07-13T03:40:00;98606.32;;;31.68;47.18
77526;BME280;66627;29.424;-98.496;2023-07-13T03:42:25;98614.56;;;30.92;48.02
77526;BME280;66627;29.424;-98.496;2023-07-13T03:44:50;98612.87;;;30.91;48.14
77526;BME280;66627;29.424;-98.496;2023-07-13T03:47:16;98614.01;;;31.35;47.45
77526;BME280;66627;29.424;-98.496;2023-07-13T03:49:41;98618.01;;;31.23;47.17
77526;BME280;66627;29.424;-98.496;2023-07-13T03:52:07;98619.27;;;31.13;47.31
77526;BME280;66627;29.424;-98.496;2023-07-13T03:54:36;98619.04;;;31.55;47.05
77526;BME280;66627;29.424;-98.496;2023-07-13T03:56:56;98617.17;;;31.11;47.31
77526;BME280;66627;29.424;-98.496;2023-07-13T03:59:22;98620.59;;;30.95;47.61
77526;BME280;66627;29.424;-98.496;2023-07-13T04:01:47;98624.07;;;31.31;47.06
77526;BME280;66627;29.424;-98.496;2023-07-13T04:04:12;98621.74;;;30.76;47.98
77526;BME280;66627;29.424;-98.496;2023-07-13T04:06:38;98623.41;;;30.70;48.17
77526;BME280;66627;29.424;-98.496;2023-07-13T04:09:04;98624.37;;;31.11;47.35
77526;BME280;66627;29.424;-98.496;2023-07-13T04:11:30;98619.55;;;31.12;47.71
77526;BME280;66627;29.424;-98.496;2023-07-13T04:13:55;98622.40;;;31.24;48.12
77526;BME280;66627;29.424;-98.496;2023-07-13T04:16:19;98626.67;;;30.96;48.69
77526;BME280;66627;29.424;-98.496;2023-07-13T04:18:52;98626.39;;;30.90;48.74
77526;BME280;66627;29.424;-98.496;2023-07-13T04:21:09;98632.31;;;30.91;48.30
77526;BME280;66627;29.424;-98.496;2023-07-13T04:23:34;98632.77;;;30.63;49.30
77526;BME280;66627;29.424;-98.496;2023-07-13T04:26:00;98632.98;;;30.40;49.23
77526;BME280;66627;29.424;-98.496;2023-07-13T04:28:26;98633.65;;;30.39;49.75
77526;BME280;66627;29.424;-98.496;2023-07-13T04:30:50;98634.98;;;30.08;50.51
77526;BME280;66627;29.424;-98.496;2023-07-13T04:35:40;98628.23;;;30.35;49.98
77526;BME280;66627;29.424;-98.496;2023-07-13T04:38:06;98625.83;;;30.11;50.46
77526;BME280;66627;29.424;-98.496;2023-07-13T04:40:31;98623.85;;;29.98;50.94
77526;BME280;66627;29.424;-98.496;2023-07-13T04:42:56;98626.24;;;30.46;50.01
77526;BME280;66627;29.424;-98.496;2023-07-13T04:45:22;98616.60;;;30.10;50.71
77526;BME280;66627;29.424;-98.496;2023-07-13T04:47:46;98617.12;;;30.31;49.92
77526;BME280;66627;29.424;-98.496;2023-07-13T04:50:13;98613.98;;;30.14;50.29
77526;BME280;66627;29.424;-98.496;2023-07-13T04:52:36;98612.66;;;29.94;50.61
77526;BME280;66627;29.424;-98.496;2023-07-13T04:55:01;98612.13;;;29.12;51.98
77526;BME280;66627;29.424;-98.496;2023-07-13T04:57:27;98613.99;;;29.60;51.20
77526;BME280;66627;29.424;-98.496;2023-07-13T04:59:53;98615.51;;;29.77;50.86
77526;BME280;66627;29.424;-98.496;2023-07-13T05:02:20;98617.75;;;29.68;50.84
77526;BME280;66627;29.424;-98.496;2023-07-13T05:04:43;98621.68;;;30.31;50.05
77526;BME280;66627;29.424;-98.496;2023-07-13T05:07:08;98631.17;;;29.90;50.13
77526;BME280;66627;29.424;-98.496;2023-07-13T05:09:33;98634.01;;;29.67;50.71
77526;BME280;66627;29.424;-98.496;2023-07-13T05:11:58;98637.95;;;29.13;51.08
77526;BME280;66627;29.424;-98.496;2023-07-13T05:14:23;98646.92;;;29.28;51.23
77526;BME280;66627;29.424;-98.496;2023-07-13T05:16:48;98649.93;;;29.07;50.94
77526;BME280;66627;29.424;-98.496;2023-07-13T05:19:13;98654.33;;;30.29;49.54
77526;BME280;66627;29.424;-98.496;2023-07-13T05:21:39;98653.98;;;29.65;49.96
77526;BME280;66627;29.424;-98.496;2023-07-13T05:24:04;98655.95;;;29.40;50.24
77526;BME280;66627;29.424;-98.496;2023-07-13T05:26:29;98658.14;;;29.91;49.36
77526;BME280;66627;29.424;-98.496;2023-07-13T05:28:55;98658.62;;;29.75;49.39
77526;BME280;66627;29.424;-98.496;2023-07-13T05:31:20;98657.40;;;30.29;48.39
77526;BME280;66627;29.424;-98.496;2023-07-13T05:33:45;98660.09;;;30.12;48.71
77526;BME280;66627;29.424;-98.496;2023-07-13T05:36:10;98662.45;;;30.19;48.66
77526;BME280;66627;29.424;-98.496;2023-07-13T05:38:35;98659.53;;;29.70;49.64
77526;BME280;66627;29.424;-98.496;2023-07-13T05:41:00;98657.70;;;30.04;49.04
77526;BME280;66627;29.424;-98.496;2023-07-13T05:43:26;98658.28;;;29.74;49.50
77526;BME280;66627;29.424;-98.496;2023-07-13T05:45:53;98657.57;;;29.38;50.08
77526;BME280;66627;29.424;-98.496;2023-07-13T05:48:16;98655.72;;;29.56;49.81
77526;BME280;66627;29.424;-98.496;2023-07-13T05:50:41;98660.69;;;30.06;49.01
77526;BME280;66627;29.424;-98.496;2023-07-13T05:53:06;98660.93;;;29.57;49.78
77526;BME280;66627;29.424;-98.496;2023-07-13T05:55:32;98657.73;;;29.39;50.13
77526;BME280;66627;29.424;-98.496;2023-07-13T05:57:57;98653.35;;;29.54;50.33
77526;BME280;66627;29.424;-98.496;2023-07-13T06:00:22;98655.11;;;29.31;50.39
77526;BME280;66627;29.424;-98.496;2023-07-13T06:02:47;98654.85;;;29.82;50.49
77526;BME280;66627;29.424;-98.496;2023-07-13T06:05:12;98662.91;;;29.59;49.95
77526;BME280;66627;29.424;-98.496;2023-07-13T06:07:38;98662.19;;;29.41;50.37
77526;BME280;66627;29.424;-98.496;2023-07-13T06:10:03;98660.36;;;29.17;50.70
77526;BME280;66627;29.424;-98.496;2023-07-13T06:12:28;98668.05;;;29.02;51.53
77526;BME280;66627;29.424;-98.496;2023-07-13T06:14:53;98667.26;;;28.87;51.71
77526;BME280;66627;29.424;-98.496;2023-07-13T06:17:18;98671.00;;;29.05;52.00
77526;BME280;66627;29.424;-98.496;2023-07-13T06:19:43;98676.95;;;29.48;51.26
77526;BME280;66627;29.424;-98.496;2023-07-13T06:22:09;98669.04;;;28.78;52.00
77526;BME280;66627;29.424;-98.496;2023-07-13T06:24:34;98673.32;;;29.20;51.57
77526;BME280;66627;29.424;-98.496;2023-07-13T06:26:59;98676.28;;;29.01;52.08
77526;BME280;66627;29.424;-98.496;2023-07-13T06:29:24;98676.02;;;28.48;53.04
77526;BME280;66627;29.424;-98.496;2023-07-13T06:31:50;98675.12;;;29.14;51.81
77526;BME280;66627;29.424;-98.496;2023-07-13T06:34:16;98673.10;;;29.44;51.38
77526;BME280;66627;29.424;-98.496;2023-07-13T06:36:40;98674.32;;;29.33;51.53
77526;BME280;66627;29.424;-98.496;2023-07-13T06:39:05;98669.64;;;29.47;51.14
77526;BME280;66627;29.424;-98.496;2023-07-13T06:41:31;98669.13;;;28.63;52.89
77526;BME280;66627;29.424;-98.496;2023-07-13T06:43:56;98668.86;;;28.31;53.62
77526;BME280;66627;29.424;-98.496;2023-07-13T06:46:22;98660.02;;;28.84;52.74
77526;BME280;66627;29.424;-98.496;2023-07-13T06:48:47;98660.26;;;28.41;53.62
77526;BME280;66627;29.424;-98.496;2023-07-13T06:51:12;98664.23;;;28.44;53.59
77526;BME280;66627;29.424;-98.496;2023-07-13T06:53:37;98659.52;;;28.35;54.38
77526;BME280;66627;29.424;-98.496;2023-07-13T06:56:03;98657.85;;;28.27;54.06
77526;BME280;66627;29.424;-98.496;2023-07-13T06:58:27;98654.71;;;28.50;54.03
77526;BME280;66627;29.424;-98.496;2023-07-13T07:00:53;98650.54;;;28.69;53.73
77526;BME280;66627;29.424;-98.496;2023-07-13T07:03:18;98644.23;;;28.00;54.57
77526;BME280;66627;29.424;-98.496;2023-07-13T07:05:43;98639.43;;;28.87;53.35
77526;BME280;66627;29.424;-98.496;2023-07-13T07:08:09;98635.71;;;28.76;53.70
77526;BME280;66627;29.424;-98.496;2023-07-13T07:10:34;98630.07;;;28.11;54.71
77526;BME280;66627;29.424;-98.496;2023-07-13T07:12:59;98630.94;;;27.75;55.88
77526;BME280;66627;29.424;-98.496;2023-07-13T07:15:24;98627.41;;;27.97;55.04
77526;BME280;66627;29.424;-98.496;2023-07-13T07:17:50;98625.45;;;27.72;56.02
77526;BME280;66627;29.424;-98.496;2023-07-13T07:20:16;98621.34;;;27.46;56.79
77526;BME280;66627;29.424;-98.496;2023-07-13T07:22:40;98621.80;;;27.57;56.64
77526;BME280;66627;29.424;-98.496;2023-07-13T07:25:06;98619.48;;;27.95;56.45
77526;BME280;66627;29.424;-98.496;2023-07-13T07:27:30;98618.54;;;28.30;55.83
77526;BME280;66627;29.424;-98.496;2023-07-13T07:29:56;98625.05;;;28.04;56.16
77526;BME280;66627;29.424;-98.496;2023-07-13T07:32:21;98624.76;;;28.11;55.54
77526;BME280;66627;29.424;-98.496;2023-07-13T07:34:46;98626.00;;;28.02;55.59
77526;BME280;66627;29.424;-98.496;2023-07-13T07:37:13;98630.52;;;28.52;54.78
77526;BME280;66627;29.424;-98.496;2023-07-13T07:39:36;98631.99;;;28.02;55.54
77526;BME280;66627;29.424;-98.496;2023-07-13T07:42:02;98630.01;;;28.30;55.21
77526;BME280;66627;29.424;-98.496;2023-07-13T07:44:27;98630.58;;;28.32;55.20
77526;BME280;66627;29.424;-98.496;2023-07-13T07:46:52;98624.82;;;28.44;55.00
77526;BME280;66627;29.424;-98.496;2023-07-13T07:49:17;98625.06;;;28.94;54.28
77526;BME280;66627;29.424;-98.496;2023-07-13T07:51:42;98621.76;;;28.39;55.31
77526;BME280;66627;29.424;-98.496;2023-07-13T07:54:07;98621.26;;;28.54;55.01
77526;BME280;66627;29.424;-98.496;2023-07-13T07:56:33;98622.68;;;28.95;53.74
77526;BME280;66627;29.424;-98.496;2023-07-13T07:58:58;98619.63;;;29.08;53.81
77526;BME280;66627;29.424;-98.496;2023-07-13T08:01:23;98617.80;;;28.98;54.36
77526;BME280;66627;29.424;-98.496;2023-07-13T08:03:48;98616.97;;;28.75;54.18
77526;BME280;66627;29.424;-98.496;2023-07-13T08:06:14;98615.25;;;28.72;54.05
77526;BME280;66627;29.424;-98.496;2023-07-13T08:08:39;98614.89;;;28.80;54.46
77526;BME280;66627;29.424;-98.496;2023-07-13T08:11:05;98612.40;;;27.28;57.13
77526;BME280;66627;29.424;-98.496;2023-07-13T08:13:29;98610.56;;;27.65;56.92
77526;BME280;66627;29.424;-98.496;2023-07-13T08:15:55;98601.63;;;27.95;56.47
77526;BME280;66627;29.424;-98.496;2023-07-13T08:18:20;98601.78;;;27.42;57.66
77526;BME280;66627;29.424;-98.496;2023-07-13T08:20:45;98597.86;;;27.26;57.91
77526;BME280;66627;29.424;-98.496;2023-07-13T08:23:12;98600.24;;;28.10;56.65
77526;BME280;66627;29.424;-98.496;2023-07-13T08:25:36;98601.87;;;28.45;55.86
77526;BME280;66627;29.424;-98.496;2023-07-13T08:28:03;98603.10;;;28.36;56.00
77526;BME280;66627;29.424;-98.496;2023-07-13T08:30:27;98606.44;;;28.09;56.02
77526;BME280;66627;29.424;-98.496;2023-07-13T08:32:55;98608.51;;;28.42;55.90
77526;BME280;66627;29.424;-98.496;2023-07-13T08:35:19;98615.29;;;27.87;57.27
77526;BME280;66627;29.424;-98.496;2023-07-13T08:37:44;98614.82;;;27.93;56.71
77526;BME280;66627;29.424;-98.496;2023-07-13T08:40:11;98614.64;;;28.08;56.94
77526;BME280;66627;29.424;-98.496;2023-07-13T08:42:39;98609.86;;;27.88;57.10
77526;BME280;66627;29.424;-98.496;2023-07-13T08:45:08;98602.95;;;28.29;56.42
77526;BME280;66627;29.424;-98.496;2023-07-13T08:47:25;98598.47;;;28.43;55.98
77526;BME280;66627;29.424;-98.496;2023-07-13T08:49:50;98602.53;;;28.97;54.94
77526;BME280;66627;29.424;-98.496;2023-07-13T08:52:26;98603.06;;;28.57;55.15
77526;BME280;66627;29.424;-98.496;2023-07-13T08:54:45;98606.98;;;28.21;55.60
77526;BME280;66627;29.424;-98.496;2023-07-13T08:57:12;98609.18;;;27.79;57.11
77526;BME280;66627;29.424;-98.496;2023-07-13T08:59:33;98605.86;;;27.01;58.21
77526;BME280;66627;29.424;-98.496;2023-07-13T09:02:10;98606.10;;;27.93;56.77
77526;BME280;66627;29.424;-98.496;2023-07-13T09:04:25;98603.74;;;27.77;57.41
77526;BME280;66627;29.424;-98.496;2023-07-13T09:06:58;98594.34;;;27.55;57.14
77526;BME280;66627;29.424;-98.496;2023-07-13T09:09:19;98594.90;;;28.24;55.69
77526;BME280;66627;29.424;-98.496;2023-07-13T09:11:46;98591.97;;;28.07;56.38
77526;BME280;66627;29.424;-98.496;2023-07-13T09:14:14;98592.62;;;27.60;57.32
77526;BME280;66627;29.424;-98.496;2023-07-13T09:16:29;98590.37;;;28.09;56.32
77526;BME280;66627;29.424;-98.496;2023-07-13T09:18:59;98589.99;;;28.53;54.99
77526;BME280;66627;29.424;-98.496;2023-07-13T09:21:25;98591.97;;;27.78;56.36
77526;BME280;66627;29.424;-98.496;2023-07-13T09:23:45;98590.18;;;28.40;55.71
77526;BME280;66627;29.424;-98.496;2023-07-13T09:26:14;98586.73;;;27.62;56.50
77526;BME280;66627;29.424;-98.496;2023-07-13T09:28:40;98585.16;;;27.93;56.55
77526;BME280;66627;29.424;-98.496;2023-07-13T09:31:04;98581.52;;;28.41;55.29
77526;BME280;66627;29.424;-98.496;2023-07-13T09:33:27;98579.61;;;27.25;57.38
77526;BME280;66627;29.424;-98.496;2023-07-13T09:35:52;98578.56;;;27.42;57.21
77526;BME280;66627;29.424;-98.496;2023-07-13T09:38:21;98577.20;;;27.36;57.85
77526;BME280;66627;29.424;-98.496;2023-07-13T09:40:58;98579.12;;;27.31;57.75
77526;BME280;66627;29.424;-98.496;2023-07-13T09:43:11;98579.67;;;27.07;58.30
77526;BME280;66627;29.424;-98.496;2023-07-13T09:45:34;98584.80;;;27.11;58.87
77526;BME280;66627;29.424;-98.496;2023-07-13T09:48:06;98589.87;;;27.13;58.25
77526;BME280;66627;29.424;-98.496;2023-07-13T09:50:24;98594.36;;;27.41;57.73
77526;BME280;66627;29.424;-98.496;2023-07-13T09:52:50;98597.17;;;27.44;57.77
77526;BME280;66627;29.424;-98.496;2023-07-13T09:55:26;98595.01;;;27.12;58.39
77526;BME280;66627;29.424;-98.496;2023-07-13T09:57:46;98593.99;;;27.23;58.28
77526;BME280;66627;29.424;-98.496;2023-07-13T10:00:18;98594.39;;;27.88;56.91
77526;BME280;66627;29.424;-98.496;2023-07-13T10:02:33;98595.00;;;26.76;59.37
77526;BME280;66627;29.424;-98.496;2023-07-13T10:04:59;98595.73;;;28.07;56.73
77526;BME280;66627;29.424;-98.496;2023-07-13T10:07:23;98597.59;;;28.06;56.52
77526;BME280;66627;29.424;-98.496;2023-07-13T10:09:47;98595.18;;;27.88;56.84
77526;BME280;66627;29.424;-98.496;2023-07-13T10:12:15;98589.68;;;27.14;58.42
77526;BME280;66627;29.424;-98.496;2023-07-13T10:14:37;98592.68;;;27.05;58.67
77526;BME280;66627;29.424;-98.496;2023-07-13T10:17:06;98598.06;;;26.92;58.99
77526;BME280;66627;29.424;-98.496;2023-07-13T10:19:31;98605.15;;;26.71;60.13
77526;BME280;66627;29.424;-98.496;2023-07-13T10:21:55;98604.94;;;27.34;58.53
77526;BME280;66627;29.424;-98.496;2023-07-13T10:24:21;98605.60;;;27.56;58.02
77526;BME280;66627;29.424;-98.496;2023-07-13T10:26:52;98606.48;;;27.37;58.44
77526;BME280;66627;29.424;-98.496;2023-07-13T10:29:12;98601.79;;;26.91;58.86
77526;BME280;66627;29.424;-98.496;2023-07-13T10:31:40;98599.67;;;27.08;58.50
77526;BME280;66627;29.424;-98.496;2023-07-13T10:34:00;98600.21;;;27.41;57.88
77526;BME280;66627;29.424;-98.496;2023-07-13T10:36:33;98602.11;;;26.87;59.02
77526;BME280;66627;29.424;-98.496;2023-07-13T10:38:52;98605.74;;;27.03;58.65
77526;BME280;66627;29.424;-98.496;2023-07-13T10:41:19;98606.36;;;26.89;58.84
77526;BME280;66627;29.424;-98.496;2023-07-13T10:43:44;98604.98;;;27.28;58.70
77526;BME280;66627;29.424;-98.496;2023-07-13T10:46:12;98601.63;;;27.10;58.62
77526;BME280;66627;29.424;-98.496;2023-07-13T10:48:34;98598.64;;;26.54;59.70
77526;BME280;66627;29.424;-98.496;2023-07-13T10:50:58;98598.16;;;26.33;60.19
77526;BME280;66627;29.424;-98.496;2023-07-13T10:53:29;98594.38;;;26.27;60.30
77526;BME280;66627;29.424;-98.496;2023-07-13T10:55:59;98593.01;;;26.53;60.09
77526;BME280;66627;29.424;-98.496;2023-07-13T11:00:56;98593.28;;;27.58;58.38
77526;BME280;66627;29.424;-98.496;2023-07-13T11:03:18;98603.54;;;27.05;59.10
77526;BME280;66627;29.424;-98.496;2023-07-13T11:10:46;98599.50;;;26.99;59.14
77526;BME280;66627;29.424;-98.496;2023-07-13T11:25:00;98632.05;;;27.04;58.33
77526;BME280;66627;29.424;-98.496;2023-07-13T11:27:33;98635.93;;;27.65;56.95
77526;BME280;66627;29.424;-98.496;2023-07-13T11:29:44;98640.91;;;28.35;56.24
77526;BME280;66627;29.424;-98.496;2023-07-13T11:32:22;98645.01;;;27.16;57.97
77526;BME280;66627;29.424;-98.496;2023-07-13T11:34:38;98646.60;;;27.13;58.02
77526;BME280;66627;29.424;-98.496;2023-07-13T11:37:01;98652.84;;;28.38;55.46
77526;BME280;66627;29.424;-98.496;2023-07-13T11:39:29;98657.43;;;27.61;56.40
77526;BME280;66627;29.424;-98.496;2023-07-13T11:41:53;98657.47;;;28.27;55.54
77526;BME280;66627;29.424;-98.496;2023-07-13T11:44:18;98663.08;;;28.22;55.66
77526;BME280;66627;29.424;-98.496;2023-07-13T11:46:46;98664.68;;;28.51;54.95
77526;BME280;66627;29.424;-98.496;2023-07-13T11:49:07;98669.95;;;27.94;55.43
77526;BME280;66627;29.424;-98.496;2023-07-13T11:51:35;98674.98;;;28.55;53.97
77526;BME280;66627;29.424;-98.496;2023-07-13T11:54:01;98680.89;;;28.15;55.76
77526;BME280;66627;29.424;-98.496;2023-07-13T11:56:24;98682.43;;;28.13;55.81
77526;BME280;66627;29.424;-98.496;2023-07-13T11:58:51;98692.40;;;28.19;55.12
77526;BME280;66627;29.424;-98.496;2023-07-13T12:01:21;98697.30;;;27.36;57.27
77526;BME280;66627;29.424;-98.496;2023-07-13T12:03:40;98699.35;;;28.42;55.03
77526;BME280;66627;29.424;-98.496;2023-07-13T12:06:25;98699.09;;;28.38;55.05
77526;BME280;66627;29.424;-98.496;2023-07-13T12:08:31;98701.98;;;28.24;55.45
77526;BME280;66627;29.424;-98.496;2023-07-13T12:11:05;98698.67;;;28.65;54.86
77526;BME280;66627;29.424;-98.496;2023-07-13T12:13:22;98694.93;;;28.49;55.13
77526;BME280;66627;29.424;-98.496;2023-07-13T12:15:47;98691.88;;;28.82;53.78
77526;BME280;66627;29.424;-98.496;2023-07-13T12:18:15;98688.53;;;27.87;55.69
77526;BME280;66627;29.424;-98.496;2023-07-13T12:20:39;98689.58;;;28.58;54.41
77526;BME280;66627;29.424;-98.496;2023-07-13T12:23:06;98692.60;;;27.88;55.67
77526;BME280;66627;29.424;-98.496;2023-07-13T12:25:29;98694.84;;;28.36;54.78
77526;BME280;66627;29.424;-98.496;2023-07-13T12:27:54;98695.80;;;28.17;55.77
77526;BME280;66627;29.424;-98.496;2023-07-13T12:30:26;98705.26;;;28.32;54.98
77526;BME280;66627;29.424;-98.496;2023-07-13T12:35:16;98708.92;;;27.78;56.13
77526;BME280;66627;29.424;-98.496;2023-07-13T12:37:35;98710.89;;;27.90;56.33
77526;BME280;66627;29.424;-98.496;2023-07-13T12:40:01;98709.14;;;28.04;55.60
77526;BME280;66627;29.424;-98.496;2023-07-13T12:42:28;98706.05;;;27.94;55.83
77526;BME280;66627;29.424;-98.496;2023-07-13T12:44:54;98710.73;;;27.97;56.31
77526;BME280;66627;29.424;-98.496;2023-07-13T12:47:21;98712.42;;;27.94;56.34
77526;BME280;66627;29.424;-98.496;2023-07-13T12:49:50;98717.26;;;27.71;56.68
77526;BME280;66627;29.424;-98.496;2023-07-13T12:52:15;98719.43;;;27.64;56.48
77526;BME280;66627;29.424;-98.496;2023-07-13T12:54:34;98724.19;;;27.98;55.44
77526;BME280;66627;29.424;-98.496;2023-07-13T12:57:00;98725.08;;;28.38;55.31
77526;BME280;66627;29.424;-98.496;2023-07-13T12:59:29;98728.76;;;28.28;55.65
77526;BME280;66627;29.424;-98.496;2023-07-13T13:01:50;98735.83;;;28.19;56.00
77526;BME280;66627;29.424;-98.496;2023-07-13T13:04:16;98737.73;;;27.84;56.52